Terminal Aerodrome Forecast
Issued by NWS

Home | Current Version | Previous Version | Text Only | Print | Product List | Glossary On
Versions: 1 2 3 4 5 6 7 8 9 10 11 12 13 14 15 16 17 18
000
FTAK31 PAJN 281700
TAFAGY
TAF
PAGY 281730Z 2818/2918 02010KT P6SM SKC
     FM282000 04015G25KT P6SM SKC
     FM290900 04010G20KT P6SM SKC
     FM291500 04010KT P6SM FEW200
      AMD LTD TO CLD VIS AND WIND=

USA.gov is the U.S. government's official web portal to all federal, state and local government web resources and services.